createdAt,value
2018-01-04T00:00:46.110Z,98263
2018-01-04T00:03:14.463Z,98264
2018-01-04T00:05:42.688Z,98268
2018-01-04T00:08:10.935Z,98259
2018-01-04T00:10:39.216Z,98269
2018-01-04T00:13:08.207Z,98266
2018-01-04T00:15:36.434Z,98264
2018-01-04T00:18:04.739Z,98267
2018-01-04T00:20:32.970Z,98270
2018-01-04T00:23:01.202Z,98279
2018-01-04T00:25:30.271Z,98270
2018-01-04T00:27:58.503Z,98283
2018-01-04T00:30:26.762Z,98272
2018-01-04T00:32:55.082Z,98284
2018-01-04T00:35:23.320Z,98288
2018-01-04T00:37:51.566Z,98285
2018-01-04T00:40:20.618Z,98294
2018-01-04T00:42:48.886Z,98302
2018-01-04T00:45:17.120Z,98305
2018-01-04T00:47:46.220Z,98308
2018-01-04T00:50:14.456Z,98311
2018-01-04T00:52:42.678Z,98324
2018-01-04T00:55:11.775Z,98316
2018-01-04T00:57:40.053Z,98323
2018-01-04T01:00:08.322Z,98323
2018-01-04T01:02:36.942Z,98332
2018-01-04T01:05:05.287Z,98337
2018-01-04T01:07:33.631Z,98338
2018-01-04T01:10:02.810Z,98334
2018-01-04T01:12:31.166Z,98331
2018-01-04T01:14:59.444Z,98322
2018-01-04T01:17:27.842Z,98326
2018-01-04T01:19:56.172Z,98336
2018-01-04T01:22:24.723Z,98335
2018-01-04T01:24:53.270Z,98335
2018-01-04T01:27:21.673Z,98325
2018-01-04T01:29:50.071Z,98340
2018-01-04T01:32:19.194Z,98340
2018-01-04T01:34:48.595Z,98340
2018-01-04T01:37:17.308Z,98350
2018-01-04T01:39:45.899Z,98355
2018-01-04T01:42:15.165Z,98350
2018-01-04T01:44:44.611Z,98352
2018-01-04T01:47:13.416Z,98354
2018-01-04T01:49:42.090Z,98351
2018-01-04T01:52:10.773Z,98350
2018-01-04T01:54:39.340Z,98355
2018-01-04T01:57:07.690Z,98352
2018-01-04T01:59:36.213Z,98354
2018-01-04T02:02:04.612Z,98353
2018-01-04T02:04:33.636Z,98350
2018-01-04T02:07:01.988Z,98354
2018-01-04T02:09:30.522Z,98347
2018-01-04T02:11:59.046Z,98353
2018-01-04T02:14:28.212Z,98357
2018-01-04T02:16:56.612Z,98369
2018-01-04T02:19:42.713Z,98347
2018-01-04T02:22:29.715Z,98358
2018-01-04T02:25:15.877Z,98359
2018-01-04T02:28:03.010Z,98352
2018-01-04T02:30:49.837Z,98366
2018-01-04T02:33:36.837Z,98368
2018-01-04T02:36:22.704Z,98365
2018-01-04T02:42:37.784Z,98363
2018-01-04T02:45:23.962Z,98361
2018-01-04T02:47:52.238Z,98367
2018-01-04T02:50:20.810Z,98373
2018-01-04T02:52:49.849Z,98372
2018-01-04T02:55:18.134Z,98369
2018-01-04T02:57:46.468Z,98377
2018-01-04T03:00:14.844Z,98375
2018-01-04T03:02:43.074Z,98376
2018-01-04T03:05:11.414Z,98380
2018-01-04T03:07:39.840Z,98383
2018-01-04T03:10:08.191Z,98382
2018-01-04T03:12:36.497Z,98381
2018-01-04T03:15:04.991Z,98378
2018-01-04T03:17:33.248Z,98386
2018-01-04T03:20:01.693Z,98383
2018-01-04T03:22:36.055Z,98384
2018-01-04T03:25:09.802Z,98395
2018-01-04T03:27:43.728Z,98395
2018-01-04T03:30:17.823Z,98394
2018-01-04T03:32:51.862Z,98396
2018-01-04T03:35:25.544Z,98395
2018-01-04T03:37:59.507Z,98389
2018-01-04T03:40:33.522Z,98398
2018-01-04T03:43:07.465Z,98396
2018-01-04T03:45:41.360Z,98410
2018-01-04T03:48:15.125Z,98407
2018-01-04T03:50:48.992Z,98408
2018-01-04T03:53:22.968Z,98410
2018-01-04T03:55:57.634Z,98418
2018-01-04T03:58:25.911Z,98419
2018-01-04T04:00:59.817Z,98421
2018-01-04T04:03:28.217Z,98433
2018-01-04T04:06:02.139Z,98434
2018-01-04T04:08:36.062Z,98434
2018-01-04T04:11:04.449Z,98447
2018-01-04T04:13:33.662Z,98452
2018-01-04T04:16:02.020Z,98448
2018-01-04T04:18:30.575Z,98443
2018-01-04T04:20:58.939Z,98449
2018-01-04T04:23:27.678Z,98448
2018-01-04T04:25:56.062Z,98466
2018-01-04T04:28:24.657Z,98477
2018-01-04T04:30:53.842Z,98477
2018-01-04T04:33:22.212Z,98478
2018-01-04T04:35:50.621Z,98470
2018-01-04T04:38:19.101Z,98478
2018-01-04T04:40:47.464Z,98479
2018-01-04T04:43:15.793Z,98482
2018-01-04T04:45:44.300Z,98483
2018-01-04T04:48:12.673Z,98489
2018-01-04T04:50:41.063Z,98491
2018-01-04T04:53:09.574Z,98480
2018-01-04T04:55:38.923Z,98483
2018-01-04T04:58:07.322Z,98486
2018-01-04T05:00:35.826Z,98496
2018-01-04T05:03:04.209Z,98501
2018-01-04T05:05:32.684Z,98505
2018-01-04T05:08:01.263Z,98500
2018-01-04T05:10:29.639Z,98502
2018-01-04T05:12:57.984Z,98501
2018-01-04T05:15:26.278Z,98501
2018-01-04T05:17:54.785Z,98496
2018-01-04T05:20:23.130Z,98495
2018-01-04T05:22:51.771Z,98499
2018-01-04T05:25:20.096Z,98497
2018-01-04T05:27:48.414Z,98495
2018-01-04T05:30:16.806Z,98497
2018-01-04T05:32:45.106Z,98508
2018-01-04T05:35:13.368Z,98505
2018-01-04T05:37:41.775Z,98509
2018-01-04T05:40:10.855Z,98511
2018-01-04T05:42:39.931Z,98507
2018-01-04T05:45:08.400Z,98510
2018-01-04T05:47:36.670Z,98515
2018-01-04T05:50:04.986Z,98518
2018-01-04T05:52:34.150Z,98523
2018-01-04T05:55:03.758Z,98524
2018-01-04T05:57:32.134Z,98523
2018-01-04T06:00:00.473Z,98517
2018-01-04T06:02:28.858Z,98522
2018-01-04T06:04:57.235Z,98529
2018-01-04T06:07:25.742Z,98530
2018-01-04T06:09:54.783Z,98534
2018-01-04T06:12:23.798Z,98525
2018-01-04T06:14:52.189Z,98528
2018-01-04T06:17:20.450Z,98534
2018-01-04T06:19:48.705Z,98546
2018-01-04T06:22:16.973Z,98541
2018-01-04T06:24:45.200Z,98537
2018-01-04T06:27:13.463Z,98544
2018-01-04T06:29:41.816Z,98536
2018-01-04T06:32:10.096Z,98546
2018-01-04T06:34:38.440Z,98548
2018-01-04T06:37:06.744Z,98545
2018-01-04T06:39:35.994Z,98557
2018-01-04T06:42:04.423Z,98558
2018-01-04T06:44:32.832Z,98555
2018-01-04T06:47:01.127Z,98566
2018-01-04T06:49:29.508Z,98559
2018-01-04T06:51:57.825Z,98556
2018-01-04T06:54:26.957Z,98564
2018-01-04T06:56:55.560Z,98563
2018-01-04T06:59:23.983Z,98576
2018-01-04T07:01:52.260Z,98576
2018-01-04T07:04:20.560Z,98581
2018-01-04T07:06:49.706Z,98566
2018-01-04T07:09:18.120Z,98577
2018-01-04T07:11:46.382Z,98584
2018-01-04T07:14:14.711Z,98576
2018-01-04T07:16:43.095Z,98583
2018-01-04T07:19:11.463Z,98578
2018-01-04T07:21:39.855Z,98586
2018-01-04T07:24:08.138Z,98593
2018-01-04T07:26:36.454Z,98596
2018-01-04T07:29:05.513Z,98593
2018-01-04T07:31:33.780Z,98609
2018-01-04T07:34:02.085Z,98603
2018-01-04T07:36:30.394Z,98612
2018-01-04T07:38:58.699Z,98617
2018-01-04T07:41:27.003Z,98607
2018-01-04T07:43:55.315Z,98618
2018-01-04T07:46:24.335Z,98611
2018-01-04T07:48:52.615Z,98619
2018-01-04T07:51:20.970Z,98627
2018-01-04T07:53:49.333Z,98629
2018-01-04T07:56:18.620Z,98617
2018-01-04T07:58:47.182Z,98625
2018-01-04T08:01:15.416Z,98631
2018-01-04T08:03:43.697Z,98639
2018-01-04T08:06:12.530Z,98634
2018-01-04T08:08:40.863Z,98638
2018-01-04T08:11:09.291Z,98637
2018-01-04T08:13:37.622Z,98637
2018-01-04T08:16:06.008Z,98643
2018-01-04T08:18:34.464Z,98653
2018-01-04T08:21:02.786Z,98655
2018-01-04T08:23:31.117Z,98656
2018-01-04T08:25:59.486Z,98654
2018-01-04T08:28:27.907Z,98656
2018-01-04T08:30:56.266Z,98660
2018-01-04T08:33:24.584Z,98660
2018-01-04T08:35:52.891Z,98673
2018-01-04T08:38:21.148Z,98683
2018-01-04T08:40:49.375Z,98684
2018-01-04T08:43:17.681Z,98686
2018-01-04T08:45:46.020Z,98686
2018-01-04T08:48:14.354Z,98699
2018-01-04T08:50:42.766Z,98700
2018-01-04T08:53:11.138Z,98699
2018-01-04T08:55:39.392Z,98709
2018-01-04T08:58:08.512Z,98715
2018-01-04T09:00:36.816Z,98720
2018-01-04T09:03:05.097Z,98718
2018-01-04T09:05:33.390Z,98728
2018-01-04T09:08:01.868Z,98731
2018-01-04T09:10:30.180Z,98730
2018-01-04T09:12:58.651Z,98728
2018-01-04T09:15:26.971Z,98725
2018-01-04T09:17:55.456Z,98718
2018-01-04T09:20:24.021Z,98724
2018-01-04T09:22:52.459Z,98725
2018-01-04T09:25:20.842Z,98727
2018-01-04T09:27:49.190Z,98725
2018-01-04T09:30:17.606Z,98725
2018-01-04T09:32:46.109Z,98734
2018-01-04T09:35:14.591Z,98731
2018-01-04T09:37:44.444Z,98720
2018-01-04T09:40:13.145Z,98730
2018-01-04T09:42:42.512Z,98732
2018-01-04T09:45:10.983Z,98735
2018-01-04T09:47:40.166Z,98732
2018-01-04T09:50:08.592Z,98735
2018-01-04T09:52:36.961Z,98738
2018-01-04T09:55:05.808Z,98731
2018-01-04T09:57:34.108Z,98733
2018-01-04T10:00:02.385Z,98738
2018-01-04T10:02:31.456Z,98737
2018-01-04T10:04:59.793Z,98738
2018-01-04T10:07:28.104Z,98746
2018-01-04T10:09:57.239Z,98743
2018-01-04T10:12:25.714Z,98748
2018-01-04T10:14:53.987Z,98752
2018-01-04T10:17:23.093Z,98752
2018-01-04T10:19:51.477Z,98749
2018-01-04T10:22:19.854Z,98748
2018-01-04T10:24:48.189Z,98749
2018-01-04T10:27:16.469Z,98743
2018-01-04T10:29:44.814Z,98741
2018-01-04T10:32:13.084Z,98739
2018-01-04T10:34:41.373Z,98727
2018-01-04T10:37:09.659Z,98725
2018-01-04T10:39:38.708Z,98731
2018-01-04T10:42:06.997Z,98713
2018-01-04T10:44:35.234Z,98715
2018-01-04T10:47:03.463Z,98714
2018-01-04T10:49:31.741Z,98710
2018-01-04T10:51:59.973Z,98706
2018-01-04T10:54:28.238Z,98714
2018-01-04T10:56:56.559Z,98709
2018-01-04T10:59:24.849Z,98713
2018-01-04T11:01:53.107Z,98706
2018-01-04T11:04:21.422Z,98705
2018-01-04T11:06:50.537Z,98708
2018-01-04T11:09:18.779Z,98703
2018-01-04T11:11:47.849Z,98700
2018-01-04T11:14:16.167Z,98702
2018-01-04T11:16:45.230Z,98707
2018-01-04T11:19:13.564Z,98704
2018-01-04T11:21:41.873Z,98701
2018-01-04T11:24:10.106Z,98706
2018-01-04T11:26:38.387Z,98707
2018-01-04T11:29:08.744Z,98709
2018-01-04T11:31:37.220Z,98706
2018-01-04T11:34:05.574Z,98707
2018-01-04T11:36:34.578Z,98713
2018-01-04T11:39:02.849Z,98709
2018-01-04T11:41:31.165Z,98719
2018-01-04T11:43:59.412Z,98713
2018-01-04T11:46:27.634Z,98712
2018-01-04T11:48:56.655Z,98709
2018-01-04T11:51:24.894Z,98725
2018-01-04T11:53:53.136Z,98720
2018-01-04T11:56:21.435Z,98717
2018-01-04T11:58:49.716Z,98709
2018-01-04T12:01:17.956Z,98711
2018-01-04T12:03:46.238Z,98707
2018-01-04T12:06:14.850Z,98701
2018-01-04T12:08:43.345Z,98706
2018-01-04T12:11:11.655Z,98695
2018-01-04T12:13:39.903Z,98698
2018-01-04T12:16:08.902Z,98698
2018-01-04T12:18:37.944Z,98693
2018-01-04T12:21:06.181Z,98691
2018-01-04T12:23:34.490Z,98698
2018-01-04T12:26:02.783Z,98693
2018-01-04T12:28:31.026Z,98696
2018-01-04T12:30:59.291Z,98699
2018-01-04T12:33:27.562Z,98699
2018-01-04T12:35:55.857Z,98710
2018-01-04T12:38:24.114Z,98704
2018-01-04T12:40:52.391Z,98698
2018-01-04T12:43:20.650Z,98711
2018-01-04T12:45:49.640Z,98715
2018-01-04T12:48:18.752Z,98712
2018-01-04T12:50:47.032Z,98703
2018-01-04T12:53:15.276Z,98704
2018-01-04T12:55:43.593Z,98705
2018-01-04T12:58:11.844Z,98703
2018-01-04T13:00:40.156Z,98699
2018-01-04T13:03:08.426Z,98698
2018-01-04T13:05:36.660Z,98711
2018-01-04T13:08:05.917Z,98715
2018-01-04T13:10:34.186Z,98710
2018-01-04T13:13:02.404Z,98709
2018-01-04T13:15:30.710Z,98709
2018-01-04T13:17:59.015Z,98709
2018-01-04T13:20:27.273Z,98704
2018-01-04T13:22:55.512Z,98710
2018-01-04T13:25:23.857Z,98719
2018-01-04T13:27:52.126Z,98710
2018-01-04T13:30:20.408Z,98710
2018-01-04T13:32:48.937Z,98711
2018-01-04T13:35:18.028Z,98699
2018-01-04T13:37:46.337Z,98697
2018-01-04T13:40:14.749Z,98698
2018-01-04T13:42:43.071Z,98708
2018-01-04T13:45:11.317Z,98706
2018-01-04T13:47:39.650Z,98697
2018-01-04T13:50:07.931Z,98694
2018-01-04T13:52:36.313Z,98706
2018-01-04T13:55:04.664Z,98702
2018-01-04T13:57:32.962Z,98702
2018-01-04T14:00:01.225Z,98707
2018-01-04T14:02:29.814Z,98714
2018-01-04T14:04:58.072Z,98713
2018-01-04T14:07:26.333Z,98714
2018-01-04T14:09:54.913Z,98715
2018-01-04T14:12:23.234Z,98717
2018-01-04T14:14:51.509Z,98725
2018-01-04T14:17:20.127Z,98714
2018-01-04T14:19:48.684Z,98717
2018-01-04T14:22:17.019Z,98717
2018-01-04T14:24:45.566Z,98713
2018-01-04T14:27:13.910Z,98723
2018-01-04T14:29:42.155Z,98716
2018-01-04T14:32:10.650Z,98716
2018-01-04T14:34:39.145Z,98724
2018-01-04T14:37:08.273Z,98723
2018-01-04T14:39:36.766Z,98721
2018-01-04T14:42:05.214Z,98722
2018-01-04T14:44:33.694Z,98725
2018-01-04T14:47:02.600Z,98727
2018-01-04T14:49:30.881Z,98730
2018-01-04T14:51:59.222Z,98723
2018-01-04T14:54:27.684Z,98730
2018-01-04T14:56:56.543Z,98730
2018-01-04T14:59:25.165Z,98733
2018-01-04T15:01:53.711Z,98727
2018-01-04T15:04:32.725Z,98727
2018-01-04T15:07:01.101Z,98735
2018-01-04T15:09:29.751Z,98733
2018-01-04T15:11:58.184Z,98730
2018-01-04T15:14:26.620Z,98725
2018-01-04T15:16:54.885Z,98721
2018-01-04T15:19:23.191Z,98727
2018-01-04T15:21:51.517Z,98726
2018-01-04T15:24:19.775Z,98723
2018-01-04T15:26:48.138Z,98722
2018-01-04T15:29:16.497Z,98724
2018-01-04T15:31:44.728Z,98717
2018-01-04T15:34:13.050Z,98717
2018-01-04T15:36:41.364Z,98716
2018-01-04T15:39:09.638Z,98718
2018-01-04T15:41:37.877Z,98717
2018-01-04T15:44:06.321Z,98723
2018-01-04T15:46:34.771Z,98722
2018-01-04T15:49:03.072Z,98724
2018-01-04T15:51:31.487Z,98722
2018-01-04T15:53:59.824Z,98716
2018-01-04T15:56:28.115Z,98718
2018-01-04T15:58:56.467Z,98726
2018-01-04T16:01:27.766Z,98719
2018-01-04T16:07:09.886Z,98719
2018-01-04T16:09:38.401Z,98716
2018-01-04T16:12:07.084Z,98708
2018-01-04T16:14:36.412Z,98707
2018-01-04T16:17:05.692Z,98707
2018-01-04T16:19:34.622Z,98713
2018-01-04T16:22:02.954Z,98712
2018-01-04T16:24:32.070Z,98702
2018-01-04T16:27:00.802Z,98709
2018-01-04T16:29:30.340Z,98723
2018-01-04T16:31:58.699Z,98717
2018-01-04T16:34:37.712Z,98717
2018-01-04T16:37:07.457Z,98717
2018-01-04T16:39:36.031Z,98711
2018-01-04T16:42:04.435Z,98716
2018-01-04T16:44:33.148Z,98713
2018-01-04T16:47:02.116Z,98714
2018-01-04T16:49:30.658Z,98713
2018-01-04T16:52:08.173Z,98712
2018-01-04T16:54:48.950Z,98706
2018-01-04T16:57:18.850Z,98702
2018-01-04T17:03:06.050Z,98708
2018-01-04T17:05:45.453Z,98702
2018-01-04T17:08:14.656Z,98696
2018-01-04T17:11:03.494Z,98703
2018-01-04T17:13:31.891Z,98696
2018-01-04T17:16:00.204Z,98702
2018-01-04T17:18:29.514Z,98694
2018-01-04T17:20:58.146Z,98681
2018-01-04T17:23:55.819Z,98690
2018-01-04T17:26:34.104Z,98686
2018-01-04T17:29:03.235Z,98683
2018-01-04T17:31:31.557Z,98674
2018-01-04T17:34:08.337Z,98677
2018-01-04T17:36:36.848Z,98674
2018-01-04T17:39:06.335Z,98675
2018-01-04T17:41:36.272Z,98670
2018-01-04T17:44:04.917Z,98661
2018-01-04T17:46:42.979Z,98661
2018-01-04T17:49:12.841Z,98660
2018-01-04T17:51:41.245Z,98658
2018-01-04T17:54:09.637Z,98656
2018-01-04T17:59:37.716Z,98663
2018-01-04T18:02:30.419Z,98645
2018-01-04T18:04:59.682Z,98661
2018-01-04T18:07:28.621Z,98670
2018-01-04T18:09:57.113Z,98653
2018-01-04T18:12:28.168Z,98647
2018-01-04T18:14:58.951Z,98642
2018-01-04T18:17:28.721Z,98646
2018-01-04T18:19:57.469Z,98640
2018-01-04T18:22:27.727Z,98639
2018-01-04T18:24:56.868Z,98633
2018-01-04T18:27:25.408Z,98625
2018-01-04T18:29:53.967Z,98630
2018-01-04T18:32:22.622Z,98626
2018-01-04T18:34:52.320Z,98626
2018-01-04T18:37:20.904Z,98613
2018-01-04T18:39:49.458Z,98611
2018-01-04T18:42:17.792Z,98601
2018-01-04T18:44:46.216Z,98597
2018-01-04T18:47:14.829Z,98597
2018-01-04T18:49:43.152Z,98606
2018-01-04T18:52:11.471Z,98608
2018-01-04T18:54:39.806Z,98611
2018-01-04T18:57:09.356Z,98605
2018-01-04T18:59:37.957Z,98603
2018-01-04T19:02:06.599Z,98602
2018-01-04T19:11:02.854Z,98599
2018-01-04T19:13:32.430Z,98604
2018-01-04T19:16:01.916Z,98595
2018-01-04T19:18:30.562Z,98597
2018-01-04T19:21:00.029Z,98597
2018-01-04T19:23:29.480Z,98590
2018-01-04T19:25:58.098Z,98591
2018-01-04T19:28:26.768Z,98592
2018-01-04T19:30:55.731Z,98589
2018-01-04T19:33:23.992Z,98586
2018-01-04T19:35:52.282Z,98591
2018-01-04T19:38:21.021Z,98599
2018-01-04T19:40:50.408Z,98592
2018-01-04T19:43:19.855Z,98591
2018-01-04T19:45:48.588Z,98584
2018-01-04T19:48:17.088Z,98576
2018-01-04T19:50:45.595Z,98581
2018-01-04T19:53:14.061Z,98576
2018-01-04T19:55:42.443Z,98570
2018-01-04T19:58:12.889Z,98573
2018-01-04T20:00:41.196Z,98564
2018-01-04T20:03:09.479Z,98570
2018-01-04T20:05:37.870Z,98557
2018-01-04T20:08:06.119Z,98555
2018-01-04T20:10:34.443Z,98561
2018-01-04T20:13:02.728Z,98552
2018-01-04T20:15:31.190Z,98555
2018-01-04T20:17:59.532Z,98561
2018-01-04T20:20:27.829Z,98552
2018-01-04T20:22:56.135Z,98540
2018-01-04T20:25:25.249Z,98548
2018-01-04T20:27:53.780Z,98549
2018-01-04T20:30:22.189Z,98552
2018-01-04T20:32:51.770Z,98558
2018-01-04T20:35:27.420Z,98560
2018-01-04T20:37:55.698Z,98556
2018-01-04T20:40:24.784Z,98555
2018-01-04T20:42:53.215Z,98561
2018-01-04T20:45:22.432Z,98549
2018-01-04T20:47:55.021Z,98547
2018-01-04T20:50:24.442Z,98539
2018-01-04T20:53:02.463Z,98527
2018-01-04T20:55:32.209Z,98530
2018-01-04T20:58:00.789Z,98526
2018-01-04T21:00:29.186Z,98519
2018-01-04T21:02:57.593Z,98512
2018-01-04T21:05:25.866Z,98501
2018-01-04T21:07:55.014Z,98505
2018-01-04T21:10:24.132Z,98493
2018-01-04T21:12:52.378Z,98483
2018-01-04T21:15:21.533Z,98491
2018-01-04T21:17:54.913Z,98477
2018-01-04T21:20:35.972Z,98490
2018-01-04T21:23:08.444Z,98479
2018-01-04T21:25:37.425Z,98477
2018-01-04T21:28:05.665Z,98477
2018-01-04T21:30:33.967Z,98469
2018-01-04T21:33:02.981Z,98455
2018-01-04T21:35:31.242Z,98451
2018-01-04T21:38:00.304Z,98454
2018-01-04T21:40:28.563Z,98449
2018-01-04T21:42:56.804Z,98443
2018-01-04T21:45:25.096Z,98445
2018-01-04T21:47:53.322Z,98444
2018-01-04T21:50:22.348Z,98431
2018-01-04T21:52:50.634Z,98433
2018-01-04T21:55:18.889Z,98433
2018-01-04T21:57:47.233Z,98418
2018-01-04T22:00:15.558Z,98415
2018-01-04T22:02:44.693Z,98412
2018-01-04T22:05:40.808Z,98412
2018-01-04T22:08:11.193Z,98411
2018-01-04T22:10:39.620Z,98401
2018-01-04T22:17:12.909Z,98383
2018-01-04T22:19:41.855Z,98380
2018-01-04T22:22:12.717Z,98375
2018-01-04T22:24:41.355Z,98365
2018-01-04T22:27:09.776Z,98355
